Time;durP1;ratioP1;P1;durP2;ratioP2;P2;SDS_P1;SDS_P2;PMS_P1;PMS_P2;Temp;Humidity;BMP_temperature;BMP_pressure;BME280_temperature;BME280_humidity;BME280_pressure;Samples;Min_cycle;Max_cycle;Signal;HPM_P1;HPM_P2
2023/04/11 00:00:35;;;;;;;4.65;1.23;;;;;;;;;;5025232;28;20139;-71
2023/04/11 00:03:01;;;;;;;5.78;1.00;;;;;;;;;;5030340;28;20059;-71
2023/04/11 00:05:30;;;;;;;5.47;1.42;;;;;;;;;;5013047;28;20088;-73
2023/04/11 00:07:56;;;;;;;7.40;1.45;;;;;;;;;;5003906;28;20052;-72
2023/04/11 00:10:23;;;;;;;9.00;1.55;;;;;;;;;;5009843;28;20057;-73
2023/04/11 00:12:51;;;;;;;6.85;1.48;;;;;;;;;;5016343;28;20048;-71
2023/04/11 00:15:22;;;;;;;6.07;1.43;;;;;;;;;;5036117;28;20052;-70
2023/04/11 00:17:49;;;;;;;10.18;1.50;;;;;;;;;;5039323;28;20133;-71
2023/04/11 00:20:16;;;;;;;10.05;1.88;;;;;;;;;;5034337;28;20110;-73
2023/04/11 00:22:43;;;;;;;6.28;1.70;;;;;;;;;;5038101;28;20056;-73
2023/04/11 00:25:10;;;;;;;13.32;1.90;;;;;;;;;;5017253;28;20052;-73
2023/04/11 00:27:37;;;;;;;9.45;2.08;;;;;;;;;;5015099;28;20076;-72
2023/04/11 00:30:04;;;;;;;8.90;1.70;;;;;;;;;;5015146;28;20048;-71
2023/04/11 00:32:32;;;;;;;12.98;1.52;;;;;;;;;;5020963;28;20060;-73
2023/04/11 00:34:59;;;;;;;10.88;1.92;;;;;;;;;;5027045;28;20151;-73
2023/04/11 00:37:26;;;;;;;10.55;2.15;;;;;;;;;;5032450;28;20072;-71
2023/04/11 00:39:56;;;;;;;10.35;1.77;;;;;;;;;;5033914;28;20063;-72
2023/04/11 00:42:23;;;;;;;10.10;1.73;;;;;;;;;;5031176;28;20052;-71
2023/04/11 00:44:50;;;;;;;10.70;2.03;;;;;;;;;;5022792;28;20052;-70
2023/04/11 00:47:17;;;;;;;10.63;1.92;;;;;;;;;;5034138;28;20131;-71
2023/04/11 00:49:45;;;;;;;10.48;2.10;;;;;;;;;;5033362;28;20135;-72
2023/04/11 00:52:12;;;;;;;11.10;1.58;;;;;;;;;;5042781;28;20056;-72
2023/04/11 00:54:39;;;;;;;9.00;2.42;;;;;;;;;;5032426;28;20130;-73
2023/04/11 00:57:10;;;;;;;17.27;1.83;;;;;;;;;;5017271;28;20059;-73
2023/04/11 00:59:36;;;;;;;11.35;1.92;;;;;;;;;;5008399;28;20061;-72
2023/04/11 01:02:03;;;;;;;13.02;2.20;;;;;;;;;;5038664;28;20052;-71
2023/04/11 01:04:30;;;;;;;15.85;1.85;;;;;;;;;;5024085;28;20087;-73
2023/04/11 01:07:00;;;;;;;11.07;1.85;;;;;;;;;;5016380;28;20172;-74
2023/04/11 01:09:28;;;;;;;10.02;2.03;;;;;;;;;;5023033;28;20145;-72
2023/04/11 01:11:56;;;;;;;12.88;2.10;;;;;;;;;;5030227;28;20069;-72
2023/04/11 01:14:24;;;;;;;12.73;1.83;;;;;;;;;;5022977;28;20052;-72
2023/04/11 01:16:51;;;;;;;9.93;2.22;;;;;;;;;;5002985;28;20120;-72
2023/04/11 01:19:19;;;;;;;12.43;2.08;;;;;;;;;;5009371;28;20133;-71
2023/04/11 01:21:46;;;;;;;8.38;1.80;;;;;;;;;;5016822;28;20060;-72
2023/04/11 01:24:15;;;;;;;15.98;2.65;;;;;;;;;;5020976;28;20095;-72
2023/04/11 01:26:42;;;;;;;12.40;1.83;;;;;;;;;;5022058;28;20174;-72
2023/04/11 01:29:09;;;;;;;12.70;2.03;;;;;;;;;;5007656;28;20061;-72
2023/04/11 01:31:35;;;;;;;12.85;1.88;;;;;;;;;;5016451;28;20186;-72
2023/04/11 01:34:02;;;;;;;21.42;2.58;;;;;;;;;;5021861;28;20052;-70
2023/04/11 01:36:30;;;;;;;14.27;1.88;;;;;;;;;;5017387;28;20066;-71
2023/04/11 01:38:57;;;;;;;12.85;2.08;;;;;;;;;;5033855;28;20060;-73
2023/04/11 01:41:26;;;;;;;11.85;1.70;;;;;;;;;;5031062;28;20147;-71
2023/04/11 01:43:53;;;;;;;10.27;1.75;;;;;;;;;;5037854;28;20052;-72
2023/04/11 01:46:20;;;;;;;15.27;1.95;;;;;;;;;;5035630;28;20052;-71
2023/04/11 01:48:46;;;;;;;14.32;1.80;;;;;;;;;;5018722;28;20053;-73
2023/04/11 01:51:13;;;;;;;14.02;1.98;;;;;;;;;;5014855;28;20078;-72
2023/04/11 01:53:40;;;;;;;16.00;2.03;;;;;;;;;;5024894;28;20060;-71
2023/04/11 01:56:07;;;;;;;13.10;2.08;;;;;;;;;;5020857;28;20092;-71
2023/04/11 01:58:36;;;;;;;16.95;2.30;;;;;;;;;;5008972;28;20056;-73
2023/04/11 02:01:02;;;;;;;14.10;2.00;;;;;;;;;;5028553;28;20102;-72
2023/04/11 02:03:29;;;;;;;10.52;1.90;;;;;;;;;;5014692;28;20061;-71
2023/04/11 02:05:56;;;;;;;10.98;1.98;;;;;;;;;;5003073;28;20049;-71
2023/04/11 02:08:23;;;;;;;12.27;2.30;;;;;;;;;;5013024;28;20080;-72
2023/04/11 02:10:50;;;;;;;11.73;1.70;;;;;;;;;;5012717;28;20053;-72
2023/04/11 02:13:17;;;;;;;9.50;1.88;;;;;;;;;;5019815;28;20056;-72
2023/04/11 02:15:45;;;;;;;12.85;1.83;;;;;;;;;;5023045;28;20080;-72
2023/04/11 02:18:12;;;;;;;14.55;1.58;;;;;;;;;;5033626;28;20052;-71
2023/04/11 02:20:39;;;;;;;15.43;1.98;;;;;;;;;;5027003;28;20255;-73
2023/04/11 02:23:06;;;;;;;10.68;1.55;;;;;;;;;;5017110;28;20060;-72
2023/04/11 02:25:33;;;;;;;13.50;1.50;;;;;;;;;;5033720;28;20114;-70
2023/04/11 02:28:01;;;;;;;13.70;1.80;;;;;;;;;;5013048;28;20061;-73
2023/04/11 02:30:28;;;;;;;8.48;1.67;;;;;;;;;;5008754;28;20061;-73
2023/04/11 02:32:56;;;;;;;9.25;1.70;;;;;;;;;;5017830;28;20053;-71
2023/04/11 02:35:23;;;;;;;7.53;1.40;;;;;;;;;;5032176;28;20052;-71
2023/04/11 02:37:49;;;;;;;7.00;1.52;;;;;;;;;;5033366;28;20072;-71
2023/04/11 02:40:16;;;;;;;6.13;1.98;;;;;;;;;;5032623;28;20045;-72
2023/04/11 02:42:43;;;;;;;9.20;1.30;;;;;;;;;;5029988;28;20053;-71
2023/04/11 02:45:10;;;;;;;8.40;1.65;;;;;;;;;;5026489;28;20053;-71
2023/04/11 02:47:37;;;;;;;8.63;1.17;;;;;;;;;;5037685;28;20112;-73
2023/04/11 02:50:05;;;;;;;11.02;1.38;;;;;;;;;;5022409;28;20049;-71
2023/04/11 02:52:32;;;;;;;;;;;;;;;;;;5012006;28;20053;-71
2023/04/11 02:54:59;;;;;;;10.90;1.40;;;;;;;;;;5009347;28;19976;-71
2023/04/11 02:57:26;;;;;;;4.50;1.10;;;;;;;;;;5019548;28;20096;-73
2023/04/11 02:59:53;;;;;;;7.28;1.40;;;;;;;;;;5007618;28;20135;-71
2023/04/11 03:02:21;;;;;;;6.00;1.05;;;;;;;;;;5019736;28;20135;-70
2023/04/11 03:04:49;;;;;;;8.52;1.45;;;;;;;;;;5002364;28;20056;-70
2023/04/11 03:07:17;;;;;;;8.25;1.60;;;;;;;;;;5017854;28;20059;-72
2023/04/11 03:09:44;;;;;;;7.75;1.35;;;;;;;;;;5028924;28;20056;-70
2023/04/11 03:12:10;;;;;;;4.22;1.02;;;;;;;;;;5016925;28;20057;-71
2023/04/11 03:14:37;;;;;;;9.50;1.63;;;;;;;;;;5005500;28;20056;-72
2023/04/11 03:17:04;;;;;;;7.53;1.13;;;;;;;;;;5031960;28;20067;-71
2023/04/11 03:19:31;;;;;;;9.60;1.42;;;;;;;;;;5037838;28;20186;-72
2023/04/11 03:21:57;;;;;;;6.53;1.00;;;;;;;;;;5032634;28;20067;-73
2023/04/11 03:24:27;;;;;;;7.95;1.30;;;;;;;;;;5031737;28;20142;-71
2023/04/11 03:26:54;;;;;;;5.88;1.15;;;;;;;;;;5029517;28;20060;-72
2023/04/11 03:29:21;;;;;;;6.95;1.25;;;;;;;;;;5035313;28;20116;-71
2023/04/11 03:31:48;;;;;;;7.60;1.20;;;;;;;;;;5026758;28;20056;-71
2023/04/11 03:34:15;;;;;;;6.25;1.05;;;;;;;;;;5032152;28;20118;-71
2023/04/11 03:36:41;;;;;;;7.40;1.15;;;;;;;;;;5014933;28;20205;-71
2023/04/11 03:39:08;;;;;;;8.93;1.27;;;;;;;;;;5014325;28;20084;-72
2023/04/11 03:41:36;;;;;;;7.05;1.02;;;;;;;;;;5012372;28;20053;-72
2023/04/11 03:44:03;;;;;;;8.43;1.20;;;;;;;;;;5012437;28;20131;-73
2023/04/11 03:46:30;;;;;;;9.10;0.93;;;;;;;;;;5008485;28;20060;-72
2023/04/11 03:49:00;;;;;;;9.35;1.27;;;;;;;;;;5015688;28;20049;-72
2023/04/11 03:51:27;;;;;;;9.52;1.88;;;;;;;;;;5014534;28;20069;-72
2023/04/11 03:53:54;;;;;;;4.95;1.00;;;;;;;;;;5013833;28;20064;-74
2023/04/11 03:56:22;;;;;;;9.80;1.40;;;;;;;;;;5034370;28;20056;-71
2023/04/11 03:58:51;;;;;;;9.25;1.05;;;;;;;;;;5013598;28;20060;-71
2023/04/11 04:01:18;;;;;;;8.20;1.38;;;;;;;;;;5021848;28;20234;-73
2023/04/11 04:03:44;;;;;;;4.13;0.90;;;;;;;;;;5016096;28;20061;-70
2023/04/11 04:06:11;;;;;;;5.78;1.00;;;;;;;;;;5014438;28;20076;-73
2023/04/11 04:08:38;;;;;;;9.68;1.27;;;;;;;;;;5010030;28;20057;-72
2023/04/11 04:11:05;;;;;;;6.13;1.10;;;;;;;;;;5019719;28;20107;-72
2023/04/11 04:13:32;;;;;;;6.82;1.17;;;;;;;;;;5015864;28;20092;-72
2023/04/11 04:16:00;;;;;;;6.63;1.10;;;;;;;;;;5016133;28;20053;-70
2023/04/11 04:18:27;;;;;;;4.47;1.02;;;;;;;;;;5008701;28;20064;-71
2023/04/11 04:20:53;;;;;;;6.22;1.00;;;;;;;;;;5025615;28;20057;-72
2023/04/11 04:23:20;;;;;;;5.55;1.15;;;;;;;;;;5016047;28;20061;-70
2023/04/11 04:25:48;;;;;;;5.28;0.80;;;;;;;;;;5015414;28;20073;-70
2023/04/11 04:28:19;;;;;;;2.80;0.80;;;;;;;;;;5015085;28;20059;-69
2023/04/11 04:30:48;;;;;;;4.90;0.82;;;;;;;;;;5012646;28;20179;-70
2023/04/11 04:33:17;;;;;;;9.38;1.00;;;;;;;;;;5015301;28;20144;-70
2023/04/11 04:35:44;;;;;;;;;;;;;;;;;;5037928;28;20089;-72
2023/04/11 04:38:16;;;;;;;3.95;0.93;;;;;;;;;;5027536;28;19924;-72
2023/04/11 04:40:43;;;;;;;8.30;1.17;;;;;;;;;;5036104;28;20322;-72
2023/04/11 04:43:16;;;;;;;3.42;1.10;;;;;;;;;;5038974;28;20075;-72
2023/04/11 04:45:43;;;;;;;8.80;1.33;;;;;;;;;;5014192;28;20155;-71
2023/04/11 04:48:10;;;;;;;6.60;1.00;;;;;;;;;;5037561;28;20060;-72
2023/04/11 04:50:41;;;;;;;5.25;1.20;;;;;;;;;;5032653;28;20080;-75
2023/04/11 04:53:08;;;;;;;9.48;1.60;;;;;;;;;;5038590;28;20056;-75
2023/04/11 04:55:38;;;;;;;4.10;1.30;;;;;;;;;;5029430;28;20147;-70
2023/04/11 04:58:07;;;;;;;4.70;1.23;;;;;;;;;;5041953;28;20060;-72
2023/04/11 05:00:35;;;;;;;7.15;1.30;;;;;;;;;;5017673;28;20063;-73
2023/04/11 05:03:04;;;;;;;7.25;1.38;;;;;;;;;;5029254;28;20056;-71
2023/04/11 05:05:31;;;;;;;;;;;;;;;;;;5031161;28;20059;-70
2023/04/11 05:08:01;;;;;;;2.40;1.00;;;;;;;;;;5040090;28;19924;-71
2023/04/11 05:10:28;;;;;;;5.88;1.55;;;;;;;;;;5034833;28;20106;-70
2023/04/11 05:12:58;;;;;;;7.72;1.20;;;;;;;;;;5039768;28;20052;-70
2023/04/11 05:15:24;;;;;;;4.05;1.00;;;;;;;;;;5028956;28;20048;-70
2023/04/11 05:17:53;;;;;;;6.03;1.20;;;;;;;;;;5039368;28;20087;-71
2023/04/11 05:20:23;;;;;;;;;;;;;;;;;;5034538;28;20185;-70
2023/04/11 05:22:52;;;;;;;5.88;0.93;;;;;;;;;;5042712;28;19928;-70
2023/04/11 05:25:23;;;;;;;6.63;1.00;;;;;;;;;;4972484;28;20080;-70
2023/04/11 05:27:52;;;;;;;6.00;1.05;;;;;;;;;;5028853;28;20062;-70
2023/04/11 05:30:26;;;;;;;7.55;1.17;;;;;;;;;;5021281;28;20067;-70
2023/04/11 05:32:54;;;;;;;7.20;1.00;;;;;;;;;;5034095;28;20082;-71
2023/04/11 05:35:21;;;;;;;5.18;1.33;;;;;;;;;;5010836;28;20063;-75
2023/04/11 05:37:48;;;;;;;5.15;1.30;;;;;;;;;;5047041;28;20071;-72
2023/04/11 05:40:18;;;;;;;10.23;1.75;;;;;;;;;;5042966;28;20048;-73
2023/04/11 05:42:49;;;;;;;6.68;1.30;;;;;;;;;;5015921;28;20079;-72
2023/04/11 05:45:18;;;;;;;8.25;1.58;;;;;;;;;;5023323;28;20135;-73
2023/04/11 05:47:47;;;;;;;5.85;1.25;;;;;;;;;;5036983;28;20083;-73
2023/04/11 05:50:14;;;;;;;5.03;1.20;;;;;;;;;;5040058;28;20049;-73
2023/04/11 05:52:44;;;;;;;6.90;1.02;;;;;;;;;;5007015;28;20127;-73
2023/04/11 05:55:15;;;;;;;4.65;1.05;;;;;;;;;;5017067;28;20065;-72
2023/04/11 05:57:42;;;;;;;9.45;1.63;;;;;;;;;;5029080;28;20048;-72
2023/04/11 06:00:15;;;;;;;7.57;1.30;;;;;;;;;;5028138;28;20064;-72
2023/04/11 06:02:50;;;;;;;5.47;1.10;;;;;;;;;;5026656;28;20060;-72
2023/04/11 06:05:17;;;;;;;4.40;1.50;;;;;;;;;;5034360;28;20056;-72
2023/04/11 06:07:44;;;;;;;5.10;1.00;;;;;;;;;;5032704;28;20130;-70
2023/04/11 06:10:13;;;;;;;4.53;1.00;;;;;;;;;;5036620;28;20066;-72
2023/04/11 06:12:41;;;;;;;5.05;1.10;;;;;;;;;;5026670;28;20056;-73
2023/04/11 06:15:13;;;;;;;7.80;0.90;;;;;;;;;;5032142;28;20056;-71
2023/04/11 06:17:39;;;;;;;3.78;1.15;;;;;;;;;;5034225;28;20212;-71
2023/04/11 06:20:10;;;;;;;6.22;1.00;;;;;;;;;;5037663;28;20143;-73
2023/04/11 06:22:38;;;;;;;4.10;0.80;;;;;;;;;;5036502;28;20117;-71
2023/04/11 06:25:06;;;;;;;3.08;0.95;;;;;;;;;;5025962;28;20057;-72
2023/04/11 06:27:33;;;;;;;4.35;0.90;;;;;;;;;;5025047;28;20052;-73
2023/04/11 06:30:02;;;;;;;4.18;1.17;;;;;;;;;;5039271;28;20063;-73
2023/04/11 06:32:36;;;;;;;5.93;0.90;;;;;;;;;;5031394;28;20167;-73
2023/04/11 06:35:06;;;;;;;2.38;0.70;;;;;;;;;;5001854;28;20056;-73
2023/04/11 06:37:36;;;;;;;5.13;1.05;;;;;;;;;;5008182;28;20072;-71
2023/04/11 06:40:04;;;;;;;6.18;0.80;;;;;;;;;;5022501;28;20056;-73
2023/04/11 06:42:32;;;;;;;5.38;1.00;;;;;;;;;;5015668;28;20048;-72
2023/04/11 06:44:59;;;;;;;4.60;0.80;;;;;;;;;;5001044;28;20056;-73
2023/04/11 06:47:26;;;;;;;3.53;0.98;;;;;;;;;;5032540;28;20056;-72
2023/04/11 06:49:58;;;;;;;3.78;0.98;;;;;;;;;;5037824;28;20055;-71
2023/04/11 06:52:29;;;;;;;3.75;1.02;;;;;;;;;;5031971;28;20055;-73
2023/04/11 06:54:56;;;;;;;5.20;0.90;;;;;;;;;;4988342;28;20049;-72
2023/04/11 06:57:23;;;;;;;3.25;0.85;;;;;;;;;;5038025;28;20095;-71
2023/04/11 06:59:51;;;;;;;4.65;0.80;;;;;;;;;;5037606;28;20049;-71
2023/04/11 07:02:17;;;;;;;6.20;1.20;;;;;;;;;;5036106;28;20048;-73
2023/04/11 07:04:46;;;;;;;3.38;0.85;;;;;;;;;;5004847;28;20050;-72
2023/04/11 07:07:16;;;;;;;1.88;0.68;;;;;;;;;;5038862;28;20052;-72
2023/04/11 07:09:43;;;;;;;2.47;0.90;;;;;;;;;;5032051;28;20075;-72
2023/04/11 07:12:14;;;;;;;4.45;0.90;;;;;;;;;;5037923;28;20175;-71
2023/04/11 07:14:41;;;;;;;10.10;1.58;;;;;;;;;;5025249;28;20052;-71
2023/04/11 07:17:17;;;;;;;1.90;0.77;;;;;;;;;;5072762;28;20052;-72
2023/04/11 07:19:43;;;;;;;5.85;1.13;;;;;;;;;;5031737;28;20056;-72
2023/04/11 07:22:23;;;;;;;7.22;0.90;;;;;;;;;;5038398;28;20056;-72
2023/04/11 07:24:51;;;;;;;4.22;1.00;;;;;;;;;;5033633;28;20166;-71
2023/04/11 07:27:20;;;;;;;6.47;1.33;;;;;;;;;;5037526;28;20068;-70
2023/04/11 07:29:47;;;;;;;6.30;1.70;;;;;;;;;;5031365;28;20048;-72
2023/04/11 07:32:16;;;;;;;5.28;1.20;;;;;;;;;;5030969;28;20048;-69
2023/04/11 07:34:43;;;;;;;5.28;0.85;;;;;;;;;;5032435;28;20056;-70
2023/04/11 07:37:11;;;;;;;5.65;1.63;;;;;;;;;;5048871;28;20141;-70
2023/04/11 07:39:40;;;;;;;5.45;1.00;;;;;;;;;;5042081;28;20091;-70
2023/04/11 07:42:06;;;;;;;;;;;;;;;;;;5041490;28;20098;-71
2023/04/11 07:44:35;;;;;;;7.78;0.90;;;;;;;;;;5014685;28;19967;-71
2023/04/11 07:47:16;;;;;;;4.50;0.90;;;;;;;;;;5045708;28;20053;-71
2023/04/11 07:49:43;;;;;;;5.63;1.20;;;;;;;;;;5042096;28;20135;-70
2023/04/11 07:52:09;;;;;;;4.45;1.48;;;;;;;;;;5012958;28;20037;-70
2023/04/11 07:54:36;;;;;;;9.88;1.20;;;;;;;;;;5025712;28;20259;-71
2023/04/11 07:57:04;;;;;;;6.28;1.27;;;;;;;;;;5007651;28;20052;-70
2023/04/11 07:59:38;;;;;;;5.82;1.20;;;;;;;;;;5020679;28;20120;-71
2023/04/11 08:02:06;;;;;;;5.43;0.95;;;;;;;;;;5036890;28;20044;-70
2023/04/11 08:04:33;;;;;;;11.05;1.42;;;;;;;;;;5019699;28;20065;-71
2023/04/11 08:07:00;;;;;;;10.65;1.27;;;;;;;;;;5040362;28;20120;-71
2023/04/11 08:09:27;;;;;;;8.15;1.20;;;;;;;;;;5042271;28;20053;-71
2023/04/11 08:11:56;;;;;;;6.45;0.90;;;;;;;;;;5037327;28;20049;-71
2023/04/11 08:14:26;;;;;;;7.55;1.45;;;;;;;;;;5022243;28;20056;-70
2023/04/11 08:16:53;;;;;;;8.73;0.90;;;;;;;;;;5032873;28;20059;-70
2023/04/11 08:19:20;;;;;;;6.00;1.05;;;;;;;;;;5041334;28;20052;-70
2023/04/11 08:21:47;;;;;;;4.72;1.00;;;;;;;;;;5031796;28;20052;-70
2023/04/11 08:24:17;;;;;;;7.72;1.27;;;;;;;;;;5037125;28;20048;-70
2023/04/11 08:26:43;;;;;;;5.40;0.95;;;;;;;;;;5021298;28;20296;-72
2023/04/11 08:29:13;;;;;;;5.63;0.90;;;;;;;;;;5039646;28;20055;-70
2023/04/11 08:31:43;;;;;;;8.75;0.93;;;;;;;;;;5042366;28;20114;-70
2023/04/11 08:34:10;;;;;;;5.18;1.00;;;;;;;;;;5016937;28;20088;-70
2023/04/11 08:36:37;;;;;;;5.15;1.35;;;;;;;;;;4993232;28;20048;-70
2023/04/11 08:39:04;;;;;;;5.90;1.10;;;;;;;;;;5020763;28;20041;-69
2023/04/11 08:41:35;;;;;;;6.25;1.20;;;;;;;;;;5022772;28;20062;-70
2023/04/11 08:44:10;;;;;;;4.68;1.10;;;;;;;;;;5034126;28;20064;-70
2023/04/11 08:46:49;;;;;;;5.00;0.93;;;;;;;;;;4991061;28;20044;-69
2023/04/11 08:49:25;;;;;;;4.53;1.20;;;;;;;;;;5030181;28;20102;-70
2023/04/11 08:51:55;;;;;;;3.92;1.00;;;;;;;;;;5039775;28;20086;-69
2023/04/11 08:54:53;;;;;;;10.63;1.30;;;;;;;;;;5046246;28;20051;-70
2023/04/11 08:57:26;;;;;;;3.58;1.08;;;;;;;;;;4929540;28;20048;-71
2023/04/11 08:59:56;;;;;;;7.63;1.38;;;;;;;;;;5023509;28;20080;-69
2023/04/11 09:02:29;;;;;;;4.03;0.88;;;;;;;;;;5027448;28;20052;-71
2023/04/11 09:04:59;;;;;;;6.25;1.00;;;;;;;;;;5025103;28;20071;-70
2023/04/11 09:07:27;;;;;;;9.30;1.00;;;;;;;;;;5041280;28;20069;-70
2023/04/11 09:09:57;;;;;;;8.43;1.08;;;;;;;;;;5034054;28;20054;-70
2023/04/11 09:12:32;;;;;;;7.28;1.50;;;;;;;;;;5035718;28;20167;-70
2023/04/11 09:15:17;;;;;;;4.30;0.90;;;;;;;;;;5023855;28;20059;-70
2023/04/11 09:17:48;;;;;;;5.50;1.10;;;;;;;;;;5039385;28;20067;-71
2023/04/11 09:20:24;;;;;;;4.68;1.10;;;;;;;;;;5035044;28;20141;-72
2023/04/11 09:22:59;;;;;;;4.22;1.02;;;;;;;;;;5036916;28;20048;-70
2023/04/11 09:25:26;;;;;;;5.53;1.00;;;;;;;;;;5032799;28;20056;-72
2023/04/11 09:28:07;;;;;;;11.10;1.20;;;;;;;;;;5029549;28;20148;-72
2023/04/11 09:30:34;;;;;;;6.97;1.10;;;;;;;;;;5020615;28;20200;-71
2023/04/11 09:33:17;;;;;;;2.53;0.93;;;;;;;;;;5028909;28;20057;-70
2023/04/11 09:35:46;;;;;;;3.05;0.88;;;;;;;;;;5010803;28;20048;-70
2023/04/11 09:38:28;;;;;;;11.07;1.40;;;;;;;;;;5039158;28;20075;-72
2023/04/11 09:41:00;;;;;;;4.70;1.33;;;;;;;;;;5035951;28;20060;-70
2023/04/11 09:43:30;;;;;;;3.53;0.98;;;;;;;;;;5038430;28;20060;-72
2023/04/11 09:46:19;;;;;;;9.20;1.20;;;;;;;;;;5031482;28;20143;-73
2023/04/11 09:48:53;;;;;;;5.22;1.08;;;;;;;;;;5028579;28;20056;-71
2023/04/11 09:51:22;;;;;;;6.35;1.55;;;;;;;;;;5003123;28;20048;-70
2023/04/11 09:53:49;;;;;;;3.85;1.08;;;;;;;;;;5038306;28;20049;-71
2023/04/11 09:56:16;;;;;;;4.07;1.17;;;;;;;;;;5029851;28;20048;-70
2023/04/11 09:58:44;;;;;;;7.55;1.23;;;;;;;;;;5033371;28;20244;-74
2023/04/11 10:01:12;;;;;;;7.97;1.02;;;;;;;;;;5025844;28;20080;-70
2023/04/11 10:03:39;;;;;;;6.05;0.82;;;;;;;;;;5039361;28;20051;-70
2023/04/11 10:06:09;;;;;;;9.48;1.83;;;;;;;;;;5000994;28;20057;-71
2023/04/11 10:08:38;;;;;;;5.13;0.80;;;;;;;;;;5032794;28;20092;-71
2023/04/11 10:11:07;;;;;;;7.20;0.80;;;;;;;;;;5035180;28;20053;-72
2023/04/11 10:13:40;;;;;;;3.08;0.88;;;;;;;;;;5039677;28;20060;-70
2023/04/11 10:16:12;;;;;;;3.50;1.23;;;;;;;;;;5016139;28;20048;-70
2023/04/11 10:18:59;;;;;;;5.15;0.80;;;;;;;;;;4994335;28;20061;-72
2023/04/11 10:21:41;;;;;;;6.90;0.98;;;;;;;;;;5037591;28;20117;-71
2023/04/11 10:24:08;;;;;;;5.20;0.93;;;;;;;;;;5016813;28;20053;-71
2023/04/11 10:26:46;;;;;;;2.15;0.70;;;;;;;;;;4976928;28;20057;-73
2023/04/11 10:29:39;;;;;;;5.30;0.90;;;;;;;;;;5039532;28;20080;-72
2023/04/11 10:32:14;;;;;;;1.05;0.60;;;;;;;;;;5023281;28;20067;-70
2023/04/11 10:35:11;;;;;;;2.33;0.80;;;;;;;;;;5043803;28;20191;-72
2023/04/11 10:37:46;;;;;;;6.22;1.10;;;;;;;;;;5023401;28;20080;-70
2023/04/11 10:40:12;;;;;;;10.27;1.15;;;;;;;;;;5047592;28;20058;-72
2023/04/11 10:42:56;;;;;;;5.85;0.85;;;;;;;;;;5040432;28;20107;-72
2023/04/11 10:45:24;;;;;;;5.43;1.00;;;;;;;;;;5021846;28;20052;-71
2023/04/11 10:48:06;;;;;;;5.57;0.70;;;;;;;;;;5004116;28;20060;-71
2023/04/11 10:50:39;;;;;;;5.25;0.70;;;;;;;;;;5031195;28;20056;-69
2023/04/11 10:53:35;;;;;;;4.45;0.77;;;;;;;;;;5028876;28;20051;-70
2023/04/11 10:56:02;;;;;;;6.32;0.80;;;;;;;;;;5014217;28;20184;-72
2023/04/11 10:58:39;;;;;;;3.47;0.90;;;;;;;;;;5028671;28;20091;-70
2023/04/11 11:01:13;;;;;;;2.30;0.65;;;;;;;;;;5031745;28;20197;-70
2023/04/11 11:03:51;;;;;;;3.20;0.70;;;;;;;;;;5033399;28;20060;-71
2023/04/11 11:06:18;;;;;;;;;;;;;;;;;;4997420;28;20120;-70
2023/04/11 11:08:49;;;;;;;4.55;0.60;;;;;;;;;;5018136;28;19936;-71
2023/04/11 11:11:19;;;;;;;4.45;0.95;;;;;;;;;;5032155;28;20052;-70
2023/04/11 11:13:47;;;;;;;5.93;1.23;;;;;;;;;;5017091;28;20067;-70
2023/04/11 11:16:16;;;;;;;4.20;0.73;;;;;;;;;;4965190;28;20057;-70
2023/04/11 11:18:57;;;;;;;2.47;0.60;;;;;;;;;;4998216;28;20057;-72
2023/04/11 11:21:43;;;;;;;7.72;1.20;;;;;;;;;;5058540;28;20056;-71
2023/04/11 11:24:13;;;;;;;5.55;1.23;;;;;;;;;;5031670;28;20058;-70
2023/04/11 11:26:41;;;;;;;4.60;0.90;;;;;;;;;;4995082;28;20105;-70
2023/04/11 11:29:10;;;;;;;2.65;0.80;;;;;;;;;;5027714;28;20144;-70
2023/04/11 11:31:39;;;;;;;5.80;1.08;;;;;;;;;;5043048;28;20119;-71
2023/04/11 11:34:06;;;;;;;3.83;0.90;;;;;;;;;;5042303;28;20106;-70
2023/04/11 11:36:34;;;;;;;3.63;0.95;;;;;;;;;;4990968;28;20060;-71
2023/04/11 11:39:04;;;;;;;4.82;0.90;;;;;;;;;;5017072;28;20056;-71
2023/04/11 11:41:33;;;;;;;6.18;1.27;;;;;;;;;;5028112;28;20160;-72
2023/04/11 11:44:00;;;;;;;4.50;0.95;;;;;;;;;;5029405;28;20059;-72
2023/04/11 11:46:32;;;;;;;5.95;1.05;;;;;;;;;;4999841;28;20067;-72
2023/04/11 11:49:02;;;;;;;4.60;0.90;;;;;;;;;;5013917;28;20053;-70
2023/04/11 11:51:39;;;;;;;4.95;0.98;;;;;;;;;;5032732;28;20045;-72
2023/04/11 11:54:08;;;;;;;4.97;0.80;;;;;;;;;;5039671;28;20056;-71
2023/04/11 11:56:42;;;;;;;5.97;1.08;;;;;;;;;;4988130;28;20129;-70
2023/04/11 11:59:12;;;;;;;6.25;1.40;;;;;;;;;;5014056;28;20060;-70
2023/04/11 12:01:42;;;;;;;2.20;0.70;;;;;;;;;;5027652;28;20056;-72
2023/04/11 12:04:11;;;;;;;8.23;1.13;;;;;;;;;;5039959;28;20052;-71
2023/04/11 12:06:38;;;;;;;3.70;0.93;;;;;;;;;;5004326;28;20083;-72
2023/04/11 12:09:08;;;;;;;4.90;1.15;;;;;;;;;;5036089;28;20057;-70
2023/04/11 12:11:41;;;;;;;6.00;1.10;;;;;;;;;;5018981;28;20056;-71
2023/04/11 12:14:08;;;;;;;4.70;1.30;;;;;;;;;;5047734;28;20049;-70
2023/04/11 12:16:37;;;;;;;5.47;0.95;;;;;;;;;;5014105;28;20060;-71
2023/04/11 12:19:06;;;;;;;5.05;0.90;;;;;;;;;;5029728;28;20054;-70
2023/04/11 12:21:34;;;;;;;3.08;0.80;;;;;;;;;;5021741;28;20060;-69
2023/04/11 12:24:01;;;;;;;5.82;0.88;;;;;;;;;;5023900;28;20135;-71
2023/04/11 12:26:36;;;;;;;3.17;0.95;;;;;;;;;;5019583;28;20052;-70
2023/04/11 12:29:06;;;;;;;3.88;0.95;;;;;;;;;;5037849;28;20052;-70
2023/04/11 12:31:33;;;;;;;4.35;0.80;;;;;;;;;;5027219;28;20060;-70
2023/04/11 12:34:00;;;;;;;6.80;1.10;;;;;;;;;;5051402;28;20053;-70
2023/04/11 12:36:29;;;;;;;4.28;0.93;;;;;;;;;;5014312;28;20052;-72
2023/04/11 12:38:59;;;;;;;6.97;1.17;;;;;;;;;;5041950;28;20060;-72
2023/04/11 12:41:29;;;;;;;2.75;0.90;;;;;;;;;;5042618;28;20072;-71
2023/04/11 12:44:01;;;;;;;7.63;1.40;;;;;;;;;;5037326;28;20051;-71
2023/04/11 12:46:32;;;;;;;4.88;1.00;;;;;;;;;;5014282;28;20056;-72
2023/04/11 12:48:59;;;;;;;6.90;0.90;;;;;;;;;;5034225;28;20106;-70
2023/04/11 12:51:31;;;;;;;8.13;1.10;;;;;;;;;;5021936;28;20064;-71
2023/04/11 12:53:57;;;;;;;5.65;1.00;;;;;;;;;;5037355;28;20048;-70
2023/04/11 12:56:25;;;;;;;2.65;0.70;;;;;;;;;;5013577;28;20060;-69
2023/04/11 12:58:52;;;;;;;4.00;0.80;;;;;;;;;;5034170;28;20056;-69
2023/04/11 13:01:22;;;;;;;4.78;0.90;;;;;;;;;;5033582;28;20330;-71
2023/04/11 13:03:50;;;;;;;5.30;1.15;;;;;;;;;;4988912;28;20172;-70
2023/04/11 13:06:17;;;;;;;2.60;0.70;;;;;;;;;;4969104;28;20048;-71
2023/04/11 13:08:49;;;;;;;2.25;1.00;;;;;;;;;;5028852;28;20048;-71
2023/04/11 13:11:19;;;;;;;3.33;1.02;;;;;;;;;;5034586;28;20060;-71
2023/04/11 13:13:47;;;;;;;5.03;0.70;;;;;;;;;;5033007;28;20081;-69
2023/04/11 13:16:13;;;;;;;4.60;0.98;;;;;;;;;;5041031;28;20052;-71
2023/04/11 13:18:41;;;;;;;6.28;0.90;;;;;;;;;;5058749;28;20059;-70
2023/04/11 13:21:11;;;;;;;7.35;0.90;;;;;;;;;;5031768;28;20055;-70
2023/04/11 13:23:41;;;;;;;3.28;0.80;;;;;;;;;;5042404;28;20059;-72
2023/04/11 13:26:11;;;;;;;2.55;0.85;;;;;;;;;;5009435;28;20048;-71
2023/04/11 13:28:45;;;;;;;5.18;0.82;;;;;;;;;;5025178;28;20068;-70
2023/04/11 13:31:12;;;;;;;7.05;0.95;;;;;;;;;;5030362;28;20052;-70
2023/04/11 13:33:40;;;;;;;7.00;1.00;;;;;;;;;;5019042;28;20053;-72
2023/04/11 13:36:13;;;;;;;3.70;0.80;;;;;;;;;;5043686;28;20040;-70
2023/04/11 13:38:42;;;;;;;4.47;0.90;;;;;;;;;;5059697;28;20220;-70
2023/04/11 13:41:12;;;;;;;10.38;1.33;;;;;;;;;;5041560;28;20086;-71
2023/04/11 13:43:39;;;;;;;3.03;0.60;;;;;;;;;;5038613;28;20047;-69
2023/04/11 13:46:06;;;;;;;3.58;1.00;;;;;;;;;;5014057;28;20173;-71
2023/04/11 13:48:33;;;;;;;5.43;0.88;;;;;;;;;;5012178;28;20078;-70
2023/04/11 13:51:03;;;;;;;7.70;0.88;;;;;;;;;;5031625;28;20111;-69
2023/04/11 13:53:32;;;;;;;3.15;0.73;;;;;;;;;;5039491;28;20052;-70
2023/04/11 13:55:58;;;;;;;4.63;0.70;;;;;;;;;;5013895;28;20056;-69
2023/04/11 13:58:27;;;;;;;2.95;0.70;;;;;;;;;;5014276;28;20120;-70
2023/04/11 14:00:53;;;;;;;7.25;0.95;;;;;;;;;;5026050;28;20045;-71
2023/04/11 14:03:23;;;;;;;4.28;0.60;;;;;;;;;;5038824;28;20056;-71
2023/04/11 14:05:50;;;;;;;3.45;0.73;;;;;;;;;;5001174;28;20064;-69
2023/04/11 14:08:17;;;;;;;5.03;0.80;;;;;;;;;;5023239;28;20112;-70
2023/04/11 14:10:47;;;;;;;4.72;0.82;;;;;;;;;;5027538;28;20060;-71
2023/04/11 14:13:16;;;;;;;1.80;0.60;;;;;;;;;;5034980;28;20083;-75
2023/04/11 14:15:43;;;;;;;3.97;0.80;;;;;;;;;;5033853;28;20063;-71
2023/04/11 14:18:11;;;;;;;1.73;0.65;;;;;;;;;;5037976;28;20052;-70
2023/04/11 14:20:38;;;;;;;4.75;1.00;;;;;;;;;;5039102;28;20060;-71
2023/04/11 14:23:06;;;;;;;4.38;1.33;;;;;;;;;;5006070;28;20060;-69
2023/04/11 14:25:32;;;;;;;5.82;1.05;;;;;;;;;;5027149;28;20052;-71
2023/04/11 14:28:01;;;;;;;4.97;0.88;;;;;;;;;;5034756;28;20052;-71
2023/04/11 14:30:27;;;;;;;;;;;;;;;;;;5036545;28;20053;-71
2023/04/11 14:32:57;;;;;;;2.17;0.70;;;;;;;;;;5025592;28;19953;-71
2023/04/11 14:35:24;;;;;;;5.63;0.80;;;;;;;;;;5036011;28;20059;-72
2023/04/11 14:37:51;;;;;;;3.58;1.05;;;;;;;;;;5012448;28;20079;-71
2023/04/11 14:40:18;;;;;;;5.30;1.00;;;;;;;;;;5039338;28;20052;-69
2023/04/11 14:42:45;;;;;;;3.67;0.85;;;;;;;;;;5026227;28;20069;-70
2023/04/11 14:45:13;;;;;;;2.83;0.60;;;;;;;;;;5037543;28;20063;-71
2023/04/11 14:47:39;;;;;;;6.15;0.82;;;;;;;;;;5035149;28;20078;-70
2023/04/11 14:50:09;;;;;;;4.45;0.70;;;;;;;;;;5038306;28;20075;-72
2023/04/11 14:52:36;;;;;;;6.75;1.27;;;;;;;;;;5025513;28;20084;-70
2023/04/11 14:55:04;;;;;;;2.40;0.70;;;;;;;;;;5039897;28;20102;-71